Time;durP1;ratioP1;P1;durP2;ratioP2;P2;SDS_P1;SDS_P2;PMS_P1;PMS_P2;Temp;Humidity;BMP_temperature;BMP_pressure;BME280_temperature;BME280_humidity;BME280_pressure;Samples;Min_cycle;Max_cycle;Signal;HPM_P1;HPM_P2
2023/08/20 00:01:28;;;;;;;9.85;3.22;;;16.60;99.90;;;;;;5075885;28;20097;-59
2023/08/20 00:03:54;;;;;;;7.68;2.75;;;16.70;99.90;;;;;;5064030;28;20032;-59
2023/08/20 00:06:20;;;;;;;15.20;3.88;;;16.60;99.90;;;;;;5076105;28;20071;-59
2023/08/20 00:08:47;;;;;;;7.90;3.20;;;16.60;99.90;;;;;;5075645;28;20040;-59
2023/08/20 00:11:13;;;;;;;6.18;2.67;;;16.60;99.90;;;;;;5057788;28;20050;-59
2023/08/20 00:13:39;;;;;;;13.02;2.92;;;16.60;99.90;;;;;;5075977;28;20055;-59
2023/08/20 00:16:05;;;;;;;8.88;3.10;;;16.60;99.90;;;;;;5075878;28;20036;-60
2023/08/20 00:18:31;;;;;;;6.95;2.40;;;16.60;99.90;;;;;;5075571;28;20063;-59
2023/08/20 00:20:57;;;;;;;10.02;3.00;;;16.60;99.90;;;;;;5075268;28;20460;-59
2023/08/20 00:23:23;;;;;;;8.80;3.05;;;16.50;99.90;;;;;;5075378;28;20064;-59
2023/08/20 00:25:49;;;;;;;9.55;3.20;;;16.50;99.90;;;;;;5075258;28;20486;-59
2023/08/20 00:28:15;;;;;;;9.73;3.35;;;16.50;99.90;;;;;;5075594;28;20036;-59
2023/08/20 00:30:40;;;;;;;6.63;3.50;;;16.60;99.90;;;;;;5075008;28;20039;-59
2023/08/20 00:33:06;;;;;;;13.55;4.15;;;16.60;99.90;;;;;;5075190;28;20039;-59
2023/08/20 00:35:32;;;;;;;7.57;2.88;;;16.60;99.90;;;;;;5075085;28;20548;-59
2023/08/20 00:37:58;;;;;;;8.02;3.30;;;16.50;99.90;;;;;;5075223;28;20075;-59
2023/08/20 00:40:24;;;;;;;8.82;3.83;;;16.40;99.90;;;;;;5074979;28;20044;-59
2023/08/20 00:42:49;;;;;;;10.77;3.75;;;16.40;99.90;;;;;;5075115;28;20036;-59
2023/08/20 00:45:18;;;;;;;9.73;3.10;;;16.40;99.90;;;;;;5075474;28;20052;-59
2023/08/20 00:47:44;;;;;;;11.43;4.28;;;16.50;99.90;;;;;;5075186;28;20067;-59
2023/08/20 00:50:11;;;;;;;10.38;4.55;;;16.50;99.90;;;;;;5075265;28;20055;-59
2023/08/20 00:52:37;;;;;;;9.55;3.90;;;16.40;99.90;;;;;;5075164;28;20086;-59
2023/08/20 00:55:15;;;;;;;10.57;4.03;;;16.50;99.90;;;;;;5075305;28;20040;-59
2023/08/20 00:57:41;;;;;;;9.98;4.60;;;16.50;99.90;;;;;;5074965;28;20044;-60
2023/08/20 01:00:10;;;;;;;7.50;3.78;;;16.40;99.90;;;;;;5074674;28;20028;-59
2023/08/20 01:02:37;;;;;;;11.85;3.80;;;16.30;99.90;;;;;;5074904;28;20056;-59
2023/08/20 01:05:07;;;;;;;9.75;4.00;;;16.20;99.90;;;;;;5075040;28;20123;-59
2023/08/20 01:07:38;;;;;;;6.15;3.88;;;16.30;99.90;;;;;;5075109;28;20058;-59
2023/08/20 01:10:29;;;;;;;10.98;4.15;;;16.30;99.90;;;;;;5074572;28;20046;-59
2023/08/20 01:12:56;;;;;;;9.35;4.15;;;16.30;99.90;;;;;;5074949;28;20139;-59
2023/08/20 01:15:21;;;;;;;9.60;3.97;;;16.30;99.90;;;;;;5074663;28;20036;-59
2023/08/20 01:17:48;;;;;;;9.45;3.80;;;16.30;99.90;;;;;;5074614;28;20162;-59
2023/08/20 01:20:15;;;;;;;9.48;3.80;;;16.30;99.90;;;;;;5074522;28;20044;-59
2023/08/20 01:22:44;;;;;;;13.48;4.53;;;16.30;99.90;;;;;;5074675;28;20037;-59
2023/08/20 01:25:45;;;;;;;10.68;4.32;;;16.30;99.90;;;;;;5074351;28;20481;-59
2023/08/20 01:28:20;;;;;;;9.30;4.18;;;16.30;99.90;;;;;;5074461;28;20127;-59
2023/08/20 01:30:47;;;;;;;15.05;4.68;;;16.20;99.90;;;;;;5074673;28;20048;-59
2023/08/20 01:33:13;;;;;;;9.65;4.13;;;16.20;99.90;;;;;;5074347;28;20399;-59
2023/08/20 01:35:39;;;;;;;10.45;4.40;;;16.10;99.90;;;;;;5074060;28;20040;-59
2023/08/20 01:38:04;;;;;;;11.73;4.50;;;16.20;99.90;;;;;;5074425;28;20044;-59
2023/08/20 01:40:31;;;;;;;7.75;3.92;;;16.30;99.90;;;;;;5074482;28;20039;-59
2023/08/20 01:42:57;;;;;;;8.38;4.10;;;16.30;99.90;;;;;;5074067;28;20111;-60
2023/08/20 01:45:22;;;;;;;9.00;3.97;;;16.30;99.90;;;;;;5074253;28;20043;-59
2023/08/20 01:47:48;;;;;;;10.70;4.60;;;16.20;99.90;;;;;;5072682;28;20048;-59
2023/08/20 01:50:14;;;;;;;9.95;4.20;;;16.20;99.90;;;;;;5074272;28;20043;-60
2023/08/20 01:52:39;;;;;;;5.95;3.45;;;16.20;99.90;;;;;;5074421;28;20067;-60
2023/08/20 01:55:06;;;;;;;8.35;4.45;;;16.10;99.90;;;;;;5073971;28;20120;-60
2023/08/20 01:57:31;;;;;;;9.93;3.90;;;16.10;99.90;;;;;;5073994;28;20112;-59
2023/08/20 01:59:58;;;;;;;6.95;3.97;;;16.20;99.90;;;;;;5073988;28;20597;-59
2023/08/20 02:02:24;;;;;;;7.55;3.78;;;16.10;99.90;;;;;;5074168;28;20129;-60
2023/08/20 02:04:49;;;;;;;10.98;3.90;;;16.20;99.90;;;;;;5061767;28;20033;-59
2023/08/20 02:07:15;;;;;;;8.32;4.28;;;16.20;99.90;;;;;;5053959;28;20033;-60
2023/08/20 02:09:41;;;;;;;12.50;4.65;;;16.10;99.90;;;;;;5054124;28;20039;-60
2023/08/20 02:12:07;;;;;;;8.05;4.03;;;16.00;99.90;;;;;;5054081;28;20467;-60
2023/08/20 02:14:35;;;;;;;8.15;4.20;;;16.10;99.90;;;;;;5053585;28;20436;-60
2023/08/20 02:17:02;;;;;;;9.38;4.88;;;16.10;99.90;;;;;;5053598;28;20045;-60
2023/08/20 02:19:28;;;;;;;6.97;3.80;;;16.00;99.90;;;;;;5053560;28;20029;-60
2023/08/20 02:21:54;;;;;;;6.72;3.65;;;16.00;99.90;;;;;;5053039;28;20043;-60
2023/08/20 02:24:19;;;;;;;6.13;3.60;;;16.00;99.90;;;;;;5053809;28;20492;-60
2023/08/20 02:26:45;;;;;;;8.02;4.25;;;15.80;99.90;;;;;;5052195;28;20124;-60
2023/08/20 02:29:11;;;;;;;10.00;4.18;;;15.90;99.90;;;;;;5053792;28;20088;-60
2023/08/20 02:31:37;;;;;;;11.27;4.63;;;15.80;99.90;;;;;;5053494;28;20045;-59
2023/08/20 02:34:02;;;;;;;13.40;4.80;;;15.80;99.90;;;;;;5053456;28;20041;-60
2023/08/20 02:36:28;;;;;;;9.52;4.50;;;15.80;99.90;;;;;;5053936;28;20037;-60
2023/08/20 02:38:53;;;;;;;12.35;4.90;;;15.80;99.90;;;;;;5053224;28;20102;-60
2023/08/20 02:41:19;;;;;;;10.77;5.18;;;15.80;99.90;;;;;;5053118;28;20492;-60
2023/08/20 02:43:45;;;;;;;9.65;4.32;;;15.80;99.90;;;;;;5053336;28;20098;-60
2023/08/20 02:46:11;;;;;;;10.68;5.72;;;15.80;99.90;;;;;;5053587;28;20036;-60
2023/08/20 02:48:37;;;;;;;13.02;6.03;;;15.80;99.90;;;;;;5053164;28;20044;-60
2023/08/20 02:51:02;;;;;;;10.00;5.93;;;15.80;99.90;;;;;;5053184;28;20047;-60
2023/08/20 02:53:28;;;;;;;15.00;6.85;;;15.70;99.90;;;;;;5053296;28;20037;-60
2023/08/20 02:55:54;;;;;;;15.25;7.38;;;15.70;99.90;;;;;;5053220;28;20090;-60
2023/08/20 02:58:20;;;;;;;12.82;6.60;;;15.80;99.90;;;;;;5053059;28;20116;-60
2023/08/20 03:00:46;;;;;;;15.38;7.35;;;15.80;99.90;;;;;;5052976;28;20040;-61
2023/08/20 03:03:12;;;;;;;17.52;7.95;;;15.90;99.90;;;;;;5052808;28;20033;-60
2023/08/20 03:05:38;;;;;;;23.92;8.45;;;15.80;99.90;;;;;;5053283;28;20041;-60
2023/08/20 03:08:04;;;;;;;16.15;7.28;;;15.80;99.90;;;;;;5052766;28;20498;-60
2023/08/20 03:10:31;;;;;;;13.55;6.93;;;15.90;99.90;;;;;;5052940;28;20514;-60
2023/08/20 03:12:57;;;;;;;16.40;7.80;;;15.90;99.90;;;;;;5052633;28;20036;-61
2023/08/20 03:15:23;;;;;;;14.60;7.25;;;15.90;99.90;;;;;;5053100;28;20055;-61
2023/08/20 03:17:48;;;;;;;15.48;7.35;;;15.90;99.90;;;;;;5052677;28;20422;-60
2023/08/20 03:20:14;;;;;;;11.07;6.68;;;15.90;99.90;;;;;;5060705;28;20036;-60
2023/08/20 03:22:40;;;;;;;11.23;6.80;;;15.90;99.90;;;;;;5072547;28;20039;-60
2023/08/20 03:25:06;;;;;;;17.90;7.18;;;15.90;99.90;;;;;;5072555;28;20049;-60
2023/08/20 03:27:32;;;;;;;17.73;6.70;;;15.90;99.90;;;;;;5072796;28;20052;-61
2023/08/20 03:29:58;;;;;;;14.02;7.03;;;15.90;99.90;;;;;;5072576;28;20044;-60
2023/08/20 03:32:24;;;;;;;10.88;6.57;;;15.80;99.90;;;;;;5071634;28;20481;-60
2023/08/20 03:34:50;;;;;;;13.73;6.60;;;15.80;99.90;;;;;;5072441;28;20032;-60
2023/08/20 03:37:15;;;;;;;10.65;6.40;;;15.80;99.90;;;;;;5072429;28;20436;-60
2023/08/20 03:39:41;;;;;;;11.18;6.05;;;15.80;99.90;;;;;;5072260;28;20119;-60
2023/08/20 03:42:07;;;;;;;13.20;7.32;;;15.70;99.90;;;;;;5072130;28;20037;-60
2023/08/20 03:44:32;;;;;;;14.57;6.57;;;15.80;99.90;;;;;;5072378;28;20178;-60
2023/08/20 03:46:58;;;;;;;10.57;6.38;;;15.80;99.90;;;;;;5072491;28;20387;-60
2023/08/20 03:49:24;;;;;;;16.73;7.15;;;15.80;99.90;;;;;;5072157;28;20032;-60
2023/08/20 03:51:49;;;;;;;12.77;7.45;;;15.80;99.90;;;;;;5072455;28;20049;-60
2023/08/20 03:54:15;;;;;;;12.40;5.97;;;15.80;99.90;;;;;;5072310;28;20045;-60
2023/08/20 03:56:41;;;;;;;16.05;7.63;;;15.90;99.90;;;;;;5072257;28;20032;-60
2023/08/20 03:59:08;;;;;;;8.43;5.85;;;15.90;99.90;;;;;;5071972;28;20072;-60
2023/08/20 04:01:35;;;;;;;10.63;6.90;;;15.80;99.90;;;;;;5072134;28;20040;-60
2023/08/20 04:04:01;;;;;;;13.45;6.85;;;15.80;99.90;;;;;;5070784;28;20040;-60
2023/08/20 04:06:27;;;;;;;15.20;7.28;;;15.80;99.90;;;;;;5072307;28;20029;-60
2023/08/20 04:08:52;;;;;;;13.35;6.63;;;15.80;99.90;;;;;;5072029;28;20396;-60
2023/08/20 04:11:18;;;;;;;11.15;7.03;;;15.80;99.90;;;;;;5071832;28;20079;-60
2023/08/20 04:13:45;;;;;;;9.98;6.03;;;15.80;99.90;;;;;;5061130;28;20095;-60
2023/08/20 04:16:10;;;;;;;10.15;6.40;;;15.80;99.90;;;;;;5066130;28;20047;-60
2023/08/20 04:18:36;;;;;;;12.88;7.00;;;15.70;99.90;;;;;;5070286;28;20120;-60
2023/08/20 04:21:01;;;;;;;12.50;5.90;;;15.70;99.90;;;;;;5072005;28;20112;-60
2023/08/20 04:23:27;;;;;;;10.00;6.50;;;15.60;99.90;;;;;;5071813;28;20432;-60
2023/08/20 04:25:53;;;;;;;7.03;5.38;;;15.70;99.90;;;;;;5071541;28;20060;-60
2023/08/20 04:28:18;;;;;;;13.48;6.30;;;15.60;99.90;;;;;;5069463;28;20076;-60
2023/08/20 04:30:44;;;;;;;14.07;6.72;;;15.50;99.90;;;;;;5063281;28;20081;-59
2023/08/20 04:33:10;;;;;;;12.75;6.30;;;15.50;99.90;;;;;;5071717;28;20036;-59
2023/08/20 04:35:36;;;;;;;8.05;6.05;;;15.50;99.90;;;;;;5070225;28;20040;-60
2023/08/20 04:38:02;;;;;;;9.65;6.25;;;15.40;99.90;;;;;;5071567;28;20064;-59
2023/08/20 04:40:28;;;;;;;11.40;6.18;;;15.40;99.90;;;;;;5071667;28;20411;-60
2023/08/20 04:42:54;;;;;;;8.88;5.80;;;15.40;99.90;;;;;;5071718;28;20100;-60
2023/08/20 04:45:20;;;;;;;9.43;6.38;;;15.40;99.90;;;;;;5074758;28;20052;-60
2023/08/20 04:47:48;;;;;;;10.60;6.38;;;15.30;99.90;;;;;;5075405;28;20538;-59
2023/08/20 04:50:14;;;;;;;12.90;6.22;;;15.50;99.90;;;;;;5075094;28;20040;-59
2023/08/20 04:52:40;;;;;;;10.07;5.47;;;15.50;99.90;;;;;;5075339;28;20036;-60
2023/08/20 04:55:07;;;;;;;9.13;5.53;;;15.50;99.90;;;;;;5075113;28;20075;-60
2023/08/20 04:57:34;;;;;;;7.60;4.95;;;15.40;99.90;;;;;;5075069;28;20040;-60
2023/08/20 04:59:59;;;;;;;10.93;6.47;;;15.50;99.90;;;;;;5075259;28;20103;-60
2023/08/20 05:02:25;;;;;;;13.00;6.82;;;15.50;99.90;;;;;;5075219;28;20109;-60
2023/08/20 05:04:51;;;;;;;12.85;6.28;;;15.50;99.90;;;;;;5075097;28;20082;-60
2023/08/20 05:07:17;;;;;;;9.60;6.35;;;15.60;99.90;;;;;;5074703;28;20489;-60
2023/08/20 05:09:42;;;;;;;12.45;6.50;;;15.60;99.90;;;;;;5074850;28;20131;-60
2023/08/20 05:12:08;;;;;;;11.02;6.00;;;15.60;99.90;;;;;;5074941;28;20128;-59
2023/08/20 05:14:34;;;;;;;13.77;6.22;;;15.60;99.90;;;;;;5057084;28;20060;-60
2023/08/20 05:17:00;;;;;;;9.13;5.72;;;15.70;99.90;;;;;;5066673;28;20045;-60
2023/08/20 05:19:25;;;;;;;7.10;5.28;;;15.80;99.90;;;;;;5074534;28;20082;-60
2023/08/20 05:21:55;;;;;;;11.13;5.85;;;15.70;99.90;;;;;;5075047;28;20094;-60
2023/08/20 05:24:21;;;;;;;8.27;5.43;;;15.90;99.90;;;;;;5074475;28;20051;-59
2023/08/20 05:26:47;;;;;;;7.57;5.45;;;16.00;99.90;;;;;;5074807;28;20119;-59
2023/08/20 05:29:12;;;;;;;13.55;6.32;;;15.90;99.90;;;;;;5074821;28;20103;-59
2023/08/20 05:31:38;;;;;;;9.10;5.85;;;16.00;99.90;;;;;;5074515;28;20117;-60
2023/08/20 05:34:04;;;;;;;10.45;5.93;;;16.10;99.90;;;;;;5074627;28;20037;-59
2023/08/20 05:36:29;;;;;;;10.43;6.15;;;16.20;99.90;;;;;;5074604;28;20043;-59
2023/08/20 05:38:55;;;;;;;9.48;5.97;;;16.30;99.90;;;;;;5074593;28;20539;-59
2023/08/20 05:41:21;;;;;;;12.18;6.50;;;16.30;99.90;;;;;;5071316;28;20486;-59
2023/08/20 05:43:46;;;;;;;14.27;6.20;;;16.50;99.90;;;;;;5074611;28;20044;-61
2023/08/20 05:46:12;;;;;;;10.80;6.38;;;16.60;99.90;;;;;;5074372;28;20094;-59
2023/08/20 05:48:37;;;;;;;9.45;6.13;;;16.70;99.90;;;;;;5073915;28;20119;-59
2023/08/20 05:51:03;;;;;;;10.32;5.63;;;16.80;99.90;;;;;;5069866;28;20037;-59
2023/08/20 05:53:28;;;;;;;9.05;5.65;;;16.90;99.90;;;;;;5071789;28;20072;-59
2023/08/20 05:55:54;;;;;;;9.60;5.78;;;17.00;99.90;;;;;;5072919;28;20067;-59
2023/08/20 05:58:20;;;;;;;11.77;5.55;;;17.20;99.90;;;;;;5058294;28;20041;-59
2023/08/20 06:00:46;;;;;;;16.08;5.50;;;17.30;99.90;;;;;;5072337;28;20419;-58
2023/08/20 06:03:12;;;;;;;9.43;5.07;;;17.30;99.90;;;;;;5068521;28;20167;-59
2023/08/20 06:05:38;;;;;;;11.07;5.55;;;17.50;99.90;;;;;;5073654;28;20127;-59
2023/08/20 06:08:04;;;;;;;12.10;5.35;;;17.50;99.90;;;;;;5065296;28;20047;-60
2023/08/20 06:10:29;;;;;;;14.98;5.78;;;17.60;99.90;;;;;;5073632;28;20029;-59
2023/08/20 06:12:56;;;;;;;10.73;5.30;;;17.80;99.90;;;;;;5069310;28;20033;-60
2023/08/20 06:15:22;;;;;;;8.90;5.30;;;17.90;99.90;;;;;;5053757;28;20044;-59
2023/08/20 06:17:48;;;;;;;11.88;5.80;;;18.00;99.90;;;;;;5053591;28;20033;-60
2023/08/20 06:20:13;;;;;;;12.85;5.95;;;18.10;99.90;;;;;;5068225;28;20438;-59
2023/08/20 06:22:39;;;;;;;12.70;5.80;;;18.20;99.90;;;;;;5073535;28;20457;-59
2023/08/20 06:25:05;;;;;;;13.75;6.18;;;18.30;99.90;;;;;;5073130;28;20098;-59
2023/08/20 06:27:30;;;;;;;17.55;6.03;;;18.40;99.90;;;;;;5073533;28;20382;-59
2023/08/20 06:29:56;;;;;;;14.18;4.85;;;18.50;99.90;;;;;;5073143;28;20047;-59
2023/08/20 06:32:23;;;;;;;9.38;5.25;;;18.70;99.90;;;;;;5067218;28;20098;-59
2023/08/20 06:34:49;;;;;;;12.02;5.78;;;18.80;99.90;;;;;;5072996;28;20086;-59
2023/08/20 06:37:14;;;;;;;11.13;4.97;;;18.90;99.90;;;;;;5066551;28;20510;-59
2023/08/20 06:39:40;;;;;;;13.30;5.07;;;19.10;99.90;;;;;;5072759;28;20040;-59
2023/08/20 06:42:05;;;;;;;9.98;5.32;;;19.30;99.90;;;;;;5071388;28;20055;-59
2023/08/20 06:44:31;;;;;;;14.95;4.95;;;19.50;99.90;;;;;;5071789;28;20040;-59
2023/08/20 06:46:57;;;;;;;13.88;5.50;;;19.70;99.90;;;;;;5071764;28;20048;-59
2023/08/20 06:49:22;;;;;;;11.32;4.57;;;20.00;99.90;;;;;;5072629;28;20040;-59
2023/08/20 06:51:48;;;;;;;9.43;4.80;;;20.30;99.90;;;;;;5072725;28;20063;-59
2023/08/20 06:54:15;;;;;;;10.63;4.43;;;20.50;99.90;;;;;;5072979;28;20367;-59
2023/08/20 06:56:41;;;;;;;9.18;4.43;;;20.70;99.90;;;;;;5072848;28;20076;-59
2023/08/20 06:59:06;;;;;;;9.43;3.85;;;20.90;99.90;;;;;;5073079;28;20458;-59
2023/08/20 07:01:32;;;;;;;8.65;4.25;;;21.30;99.90;;;;;;5068252;28;20390;-59
2023/08/20 07:03:58;;;;;;;14.68;4.28;;;21.50;99.90;;;;;;5072755;28;20040;-59
2023/08/20 07:06:24;;;;;;;12.70;3.80;;;21.90;99.90;;;;;;5068404;28;20036;-59
2023/08/20 07:08:50;;;;;;;13.50;4.10;;;22.20;99.90;;;;;;5072466;28;20032;-58
2023/08/20 07:11:15;;;;;;;13.73;4.18;;;22.30;99.90;;;;;;5072639;28;20043;-59
2023/08/20 07:13:41;;;;;;;11.45;4.15;;;22.70;99.90;;;;;;5062439;28;20391;-59
2023/08/20 07:16:07;;;;;;;13.02;3.80;;;22.90;99.90;;;;;;5052330;28;20411;-58
2023/08/20 07:18:32;;;;;;;13.10;3.67;;;23.00;99.90;;;;;;5052498;28;20395;-59
2023/08/20 07:20:58;;;;;;;13.18;3.88;;;23.20;99.90;;;;;;5052307;28;20055;-59
2023/08/20 07:23:24;;;;;;;13.32;3.80;;;23.40;99.90;;;;;;5051207;28;20041;-58
2023/08/20 07:25:52;;;;;;;9.93;3.60;;;23.70;99.90;;;;;;5054248;28;20052;-59
2023/08/20 07:28:26;;;;;;;14.18;3.58;;;23.80;99.90;;;;;;5072193;28;20536;-59
2023/08/20 07:30:52;;;;;;;12.95;3.22;;;24.00;99.90;;;;;;5070617;28;20050;-59
2023/08/20 07:33:17;;;;;;;11.32;3.05;;;24.40;99.90;;;;;;5068999;28;20112;-59
2023/08/20 07:35:43;;;;;;;10.60;3.58;;;24.50;99.90;;;;;;5061930;28;20040;-59
2023/08/20 07:38:09;;;;;;;11.05;2.95;;;24.90;99.90;;;;;;5071832;28;20063;-59
2023/08/20 07:40:34;;;;;;;10.70;3.45;;;25.00;99.90;;;;;;5072206;28;20045;-59
2023/08/20 07:43:00;;;;;;;9.55;3.33;;;25.30;99.90;;;;;;5070816;28;20043;-59
2023/08/20 07:45:25;;;;;;;8.52;2.63;;;25.50;99.90;;;;;;5072088;28;20036;-59
2023/08/20 07:47:51;;;;;;;7.60;2.63;;;25.70;99.90;;;;;;5072003;28;20032;-59
2023/08/20 07:50:17;;;;;;;13.50;3.30;;;25.90;99.90;;;;;;5071801;28;20059;-59
2023/08/20 07:52:42;;;;;;;13.10;2.80;;;26.00;99.90;;;;;;5072345;28;20507;-59
2023/08/20 07:55:08;;;;;;;11.77;3.10;;;26.30;99.90;;;;;;5072156;28;20064;-59
2023/08/20 07:57:34;;;;;;;12.25;2.92;;;26.20;99.90;;;;;;5044083;28;20105;-59
2023/08/20 07:59:59;;;;;;;11.07;3.13;;;26.40;99.90;;;;;;5072088;28;20120;-59
2023/08/20 08:02:25;;;;;;;8.15;2.95;;;26.70;99.90;;;;;;5057787;28;20080;-60
2023/08/20 08:04:51;;;;;;;9.18;2.55;;;26.70;99.90;;;;;;5070859;28;20084;-59
2023/08/20 08:07:16;;;;;;;11.43;2.72;;;26.70;99.90;;;;;;5070299;28;20052;-59
2023/08/20 08:09:42;;;;;;;10.38;2.45;;;26.80;99.90;;;;;;5071896;28;20509;-59
2023/08/20 08:12:08;;;;;;;8.60;2.65;;;27.20;99.90;;;;;;5071692;28;20040;-60
2023/08/20 08:14:33;;;;;;;9.20;3.10;;;27.10;99.90;;;;;;5054116;28;20040;-59
2023/08/20 08:16:59;;;;;;;8.95;2.65;;;27.20;99.90;;;;;;5051773;28;20041;-59
2023/08/20 08:19:24;;;;;;;8.13;2.10;;;27.30;99.90;;;;;;5053400;28;20056;-60
2023/08/20 08:21:50;;;;;;;10.82;2.85;;;27.40;99.90;;;;;;5055557;28;20364;-60
2023/08/20 08:24:16;;;;;;;10.40;2.25;;;27.70;99.90;;;;;;5055490;28;20029;-60
2023/08/20 08:26:41;;;;;;;7.25;2.30;;;27.70;99.90;;;;;;5064951;28;20222;-59
2023/08/20 08:29:08;;;;;;;11.63;2.58;;;27.80;99.90;;;;;;5075261;28;20505;-59
2023/08/20 08:31:34;;;;;;;9.60;2.42;;;27.90;99.90;;;;;;5065688;28;20071;-60
2023/08/20 08:34:01;;;;;;;13.10;2.53;;;28.20;99.90;;;;;;5075140;28;20479;-60
2023/08/20 08:36:27;;;;;;;10.55;2.42;;;28.30;99.90;;;;;;5066116;28;20048;-60
2023/08/20 08:38:53;;;;;;;11.02;2.03;;;28.50;99.90;;;;;;5075205;28;20067;-60
2023/08/20 08:41:23;;;;;;;15.25;2.63;;;28.20;99.90;;;;;;5075264;28;20040;-60
2023/08/20 08:43:49;;;;;;;8.85;2.08;;;28.10;99.90;;;;;;5074882;28;20368;-59
2023/08/20 08:46:16;;;;;;;8.88;1.98;;;30.20;99.90;;;;;;5075170;28;20042;-59
2023/08/20 08:48:43;;;;;;;8.55;2.05;;;31.60;99.90;;;;;;5074720;28;20544;-59
2023/08/20 08:51:09;;;;;;;8.73;2.33;;;32.90;99.90;;;;;;5074868;28;20062;-60
2023/08/20 08:53:35;;;;;;;7.82;1.70;;;33.50;99.90;;;;;;5074249;28;20036;-58
2023/08/20 08:56:02;;;;;;;10.80;2.17;;;34.00;99.90;;;;;;5073396;28;20494;-58
2023/08/20 08:58:28;;;;;;;10.43;2.10;;;34.20;99.60;;;;;;5074607;28;20036;-59
2023/08/20 09:00:54;;;;;;;9.07;1.70;;;34.40;99.50;;;;;;5069637;28;20048;-59
2023/08/20 09:03:20;;;;;;;7.78;2.20;;;34.90;99.60;;;;;;5074825;28;20117;-59
2023/08/20 09:05:47;;;;;;;6.50;1.80;;;35.40;99.10;;;;;;5063330;28;20044;-61
2023/08/20 09:08:33;;;;;;;8.68;2.38;;;35.90;98.80;;;;;;5061638;28;20048;-62
2023/08/20 09:11:01;;;;;;;9.02;2.10;;;36.00;97.60;;;;;;5064486;28;20088;-61
2023/08/20 09:13:47;;;;;;;6.95;1.90;;;35.60;97.70;;;;;;5065910;28;20041;-62
2023/08/20 09:16:12;;;;;;;7.70;2.38;;;35.60;97.50;;;;;;5053994;28;20088;-61
2023/08/20 09:18:44;;;;;;;8.85;1.77;;;36.10;97.60;;;;;;5073264;28;20098;-61
2023/08/20 09:21:11;;;;;;;5.60;1.65;;;36.10;97.20;;;;;;5064336;28;20577;-62
2023/08/20 09:23:37;;;;;;;5.80;1.50;;;35.30;96.10;;;;;;5049797;28;20032;-63
2023/08/20 09:26:05;;;;;;;5.40;1.73;;;35.00;96.30;;;;;;5053713;28;20057;-62
2023/08/20 09:28:45;;;;;;;5.15;1.55;;;34.80;97.20;;;;;;5054314;28;20045;-61
2023/08/20 09:31:12;;;;;;;5.93;1.67;;;34.90;96.20;;;;;;5051939;28;20112;-61
2023/08/20 09:33:51;;;;;;;5.63;1.50;;;35.20;96.90;;;;;;5052531;28;20447;-61
2023/08/20 09:36:18;;;;;;;4.38;1.23;;;35.50;96.80;;;;;;5053091;28;20128;-61
2023/08/20 09:38:44;;;;;;;6.03;1.90;;;35.90;97.00;;;;;;5053599;28;20055;-61
2023/08/20 09:41:11;;;;;;;8.40;1.83;;;35.50;96.00;;;;;;5053418;28;20037;-61
2023/08/20 09:43:38;;;;;;;6.35;1.60;;;35.50;96.40;;;;;;5053583;28;20502;-62
2023/08/20 09:46:05;;;;;;;8.90;2.08;;;35.30;95.90;;;;;;5052248;28;20033;-61
2023/08/20 09:48:37;;;;;;;7.40;1.88;;;34.80;96.20;;;;;;5053624;28;20064;-62
2023/08/20 09:51:10;;;;;;;4.80;1.60;;;34.50;96.60;;;;;;5053285;28;20527;-61
2023/08/20 09:53:49;;;;;;;7.25;1.80;;;33.30;96.90;;;;;;5053285;28;20120;-61
2023/08/20 09:56:28;;;;;;;8.13;1.88;;;34.20;97.30;;;;;;5058433;28;20044;-61
2023/08/20 09:58:56;;;;;;;5.65;1.65;;;34.00;97.30;;;;;;5073385;28;20036;-61
2023/08/20 10:01:22;;;;;;;6.65;2.53;;;33.60;97.50;;;;;;5073225;28;20044;-61
2023/08/20 10:03:48;;;;;;;5.20;1.67;;;34.10;97.30;;;;;;5073233;28;20399;-61
2023/08/20 10:06:13;;;;;;;5.50;1.45;;;34.40;97.40;;;;;;5073223;28;20037;-61
2023/08/20 10:08:39;;;;;;;4.47;1.67;;;33.90;97.50;;;;;;5071760;28;20040;-61
2023/08/20 10:11:05;;;;;;;10.45;2.08;;;34.10;97.10;;;;;;5073083;28;20067;-61
2023/08/20 10:13:31;;;;;;;5.38;1.80;;;34.30;96.80;;;;;;5064294;28;20094;-61
2023/08/20 10:15:56;;;;;;;5.35;1.33;;;34.90;96.70;;;;;;5053218;28;20098;-61
2023/08/20 10:18:22;;;;;;;7.32;1.90;;;35.40;95.80;;;;;;5051809;28;20045;-61
2023/08/20 10:20:51;;;;;;;7.60;1.55;;;35.90;95.80;;;;;;5052839;28;20041;-62
2023/08/20 10:23:24;;;;;;;5.40;1.58;;;36.00;94.90;;;;;;5052928;28;20036;-61
2023/08/20 10:25:52;;;;;;;8.55;1.65;;;36.40;94.80;;;;;;5052584;28;20145;-62
2023/08/20 10:28:24;;;;;;;4.30;1.00;;;36.80;95.00;;;;;;5051490;28;20056;-61
2023/08/20 10:31:09;;;;;;;6.60;1.85;;;36.60;94.00;;;;;;5051909;28;20047;-61
2023/08/20 10:33:56;;;;;;;6.93;1.83;;;36.40;94.10;;;;;;5038802;28;20033;-62
2023/08/20 10:36:26;;;;;;;5.53;1.40;;;36.70;93.90;;;;;;5052197;28;20048;-60
2023/08/20 10:38:55;;;;;;;4.32;1.17;;;36.50;94.20;;;;;;5053207;28;20037;-59
2023/08/20 10:41:30;;;;;;;8.77;1.90;;;36.70;94.00;;;;;;5052527;28;20041;-59
2023/08/20 10:43:59;;;;;;;5.07;1.67;;;37.10;94.00;;;;;;5052627;28;20056;-60
2023/08/20 10:46:26;;;;;;;7.75;1.80;;;36.80;94.00;;;;;;5042859;28;20033;-60
2023/08/20 10:48:52;;;;;;;;;;;37.00;94.00;;;;;;5049614;28;20044;-60
2023/08/20 10:51:18;;;;;;;4.35;1.30;;;37.30;94.70;;;;;;5052768;28;19916;-61
2023/08/20 10:54:06;;;;;;;3.80;1.20;;;36.50;93.50;;;;;;5052586;28;20040;-60
2023/08/20 10:56:45;;;;;;;4.78;1.40;;;35.90;93.20;;;;;;5040708;28;20487;-60
2023/08/20 10:59:10;;;;;;;;;;;36.30;93.70;;;;;;5062299;28;20796;-59
2023/08/20 11:01:36;;;;;;;5.13;1.45;;;36.40;94.00;;;;;;5065882;28;19928;-59
2023/08/20 11:04:06;;;;;;;8.52;1.60;;;36.70;93.90;;;;;;5070693;28;20040;-59
2023/08/20 11:06:32;;;;;;;3.50;1.45;;;36.90;93.70;;;;;;5051930;28;20041;-60
2023/08/20 11:08:58;;;;;;;5.43;1.65;;;36.50;94.00;;;;;;5051306;28;20738;-60
2023/08/20 11:11:24;;;;;;;5.60;1.50;;;36.90;94.10;;;;;;5052617;28;20050;-60
2023/08/20 11:13:50;;;;;;;6.47;1.40;;;36.50;93.90;;;;;;5052319;28;20414;-60
2023/08/20 11:16:16;;;;;;;7.32;1.55;;;35.90;94.30;;;;;;5052509;28;20044;-60
2023/08/20 11:18:42;;;;;;;6.47;1.80;;;35.70;94.20;;;;;;5048869;28;20414;-60
2023/08/20 11:21:08;;;;;;;10.35;2.28;;;35.40;94.50;;;;;;5050258;28;20585;-61
2023/08/20 11:23:36;;;;;;;6.82;1.30;;;35.10;94.50;;;;;;5046790;28;20049;-60
2023/08/20 11:26:02;;;;;;;4.78;1.48;;;34.50;95.20;;;;;;5045678;28;20051;-60
2023/08/20 11:28:28;;;;;;;3.17;1.15;;;34.20;95.00;;;;;;5052131;28;20107;-59
2023/08/20 11:30:56;;;;;;;6.85;1.42;;;33.80;94.20;;;;;;5052025;28;20125;-59
2023/08/20 11:33:22;;;;;;;6.57;1.35;;;34.00;94.60;;;;;;5050495;28;20036;-59
2023/08/20 11:35:48;;;;;;;6.55;1.58;;;34.60;94.70;;;;;;5049138;28;20041;-59
2023/08/20 11:38:14;;;;;;;5.72;1.52;;;34.80;94.50;;;;;;5055183;28;20040;-59
2023/08/20 11:40:39;;;;;;;4.28;1.30;;;34.90;94.10;;;;;;5072095;28;20032;-60
2023/08/20 11:43:06;;;;;;;5.57;1.38;;;34.60;94.10;;;;;;5071812;28;20064;-59
2023/08/20 11:45:34;;;;;;;4.50;1.25;;;35.10;94.40;;;;;;5071726;28;20074;-59
2023/08/20 11:48:00;;;;;;;5.07;1.20;;;34.80;93.80;;;;;;5071666;28;20043;-59
2023/08/20 11:50:26;;;;;;;5.75;1.67;;;34.90;93.80;;;;;;5071958;28;20036;-59
2023/08/20 11:52:56;;;;;;;3.33;1.42;;;34.60;94.20;;;;;;5071415;28;20044;-59
2023/08/20 11:55:23;;;;;;;4.75;1.48;;;34.50;94.20;;;;;;5071416;28;20127;-59
2023/08/20 11:57:52;;;;;;;3.92;1.48;;;34.70;94.30;;;;;;5072001;28;20044;-60
2023/08/20 12:00:31;;;;;;;4.22;1.38;;;35.00;94.20;;;;;;5070622;28;20037;-60
2023/08/20 12:02:58;;;;;;;5.47;1.30;;;34.40;93.30;;;;;;5071752;28;20095;-60
2023/08/20 12:05:27;;;;;;;8.13;2.20;;;34.50;94.70;;;;;;5070415;28;20120;-59
2023/08/20 12:07:58;;;;;;;6.70;1.45;;;34.30;94.50;;;;;;5071771;28;20032;-60
2023/08/20 12:10:25;;;;;;;4.55;1.45;;;34.20;94.70;;;;;;5069859;28;20128;-60
2023/08/20 12:12:51;;;;;;;3.95;1.15;;;33.90;93.70;;;;;;5068136;28;20059;-59
2023/08/20 12:15:18;;;;;;;6.72;1.85;;;33.90;94.10;;;;;;5051703;28;20113;-59
2023/08/20 12:17:58;;;;;;;3.95;1.48;;;34.00;94.10;;;;;;5051522;28;20036;-60
2023/08/20 12:20:26;;;;;;;4.65;1.30;;;33.40;94.00;;;;;;5051330;28;20487;-60
2023/08/20 12:22:51;;;;;;;4.95;1.83;;;33.50;94.80;;;;;;5051244;28;20098;-60
2023/08/20 12:25:17;;;;;;;4.40;1.15;;;33.30;94.30;;;;;;5051487;28;20077;-59
2023/08/20 12:27:43;;;;;;;6.43;1.58;;;32.80;94.00;;;;;;5051852;28;20114;-60
2023/08/20 12:30:09;;;;;;;5.75;1.30;;;32.70;94.30;;;;;;5049885;28;20041;-59
2023/08/20 12:32:34;;;;;;;3.92;1.00;;;32.90;95.10;;;;;;5050128;28;20037;-60
2023/08/20 12:35:00;;;;;;;6.18;1.42;;;32.70;94.80;;;;;;5051199;28;20037;-60
2023/08/20 12:37:26;;;;;;;3.58;1.02;;;32.70;95.20;;;;;;5051615;28;20383;-61
2023/08/20 12:39:51;;;;;;;3.63;1.25;;;32.70;95.50;;;;;;5065321;28;20037;-60
2023/08/20 12:42:17;;;;;;;6.10;1.50;;;32.70;95.40;;;;;;5071527;28;20041;-60